Details From LEBB - Bilbao
To LEVT - Vitoria
Flight Number -
Tags generated
Created
Modified
Stats Distance 28 nm / 51 km
Max Altitude 200 ft / 61 m
Waypoints 3
Social Downloads 1
Likes 0
Share VATSIM

Download

Looking for another format? Having issues loading an existing format? Contact us
Advertisement - Login to hide

Notes

Basic altitude profile: - Ascent Rate: 2500ft/min - Ascent Speed: 250kts - Cruise Altitude: 35000ft - Cruise Speed: 420kts - Descent Rate: 1500ft/min - Descent Speed: 250kts Options: - Use NATs: yes - Use PACOTS: yes - Use low airways: yes - Use high airways: yes

Route

LEBB BLV LEVT

ID Type Via Altitude Latitude Longitude Leg Dist Tot Dist Heading (true) Name
O LEBB APT - 0 ft / 0 m 43.30169˚ -2.91766˚ - 0 nm - Bilbao
BLV VOR - 200 ft / 61 m 43.30438˚ -2.93588˚ 0 nm 0 nm 281° / 281° BILBAO VOR-DME
O LEVT APT - 0 ft / 0 m 42.88285˚ -2.72446˚ 26 nm 27 nm 160° / 160° Vitoria

Altitude Profile

Advertisement - Login to hide

LEBB

Details ICAO LEBB (BIO)
Name Bilbao
Region Spain
Timezone Europe/Madrid (UTC+2.0)
Stats Elevation 137 ft / 42 m (AMSL)
Location 43.301692° -2.917664°
Runways 2
Magnetic Variation 0.574° W

METAR

LEBB 230330Z 13003KT 100V160 9999 SCT030 14/13 Q1017 NOSIG

Decode

TAF

TAF LEBB 222300Z 2300/2324 VRB05KT CAVOK TX23/2314Z TN10/2306Z PROB40 TEMPO 2300/2308 3000 BR PROB30 TEMPO 2300/2306 0800 BCFG BKN003 PROB30 TEMPO 2308/2324 3000 SHRA BKN010 SCT020TCU

Decode

Departure Runways

ID Width Length Bearing (true) Bearing (mag) Surface Threshold Offset Overrun Length
10 148 ft / 45 m 6,569 ft / 2,002 m 96.66° 97.23° Asphalt 20 ft / 6 m 184 ft / 56 m
12 148 ft / 45 m 8,539 ft / 2,603 m 116.73° 117.30° Asphalt 20 ft / 6 m 197 ft / 60 m
28 148 ft / 45 m 6,569 ft / 2,002 m 276.68° 277.25° Asphalt 23 ft / 7 m 0 ft / 0 m
30 148 ft / 45 m 8,539 ft / 2,603 m 296.75° 297.32° Asphalt 1,509 ft / 460 m 171 ft / 52 m

LEVT

Details ICAO LEVT (VIT)
Name Vitoria
Region Spain
Timezone Europe/Madrid (UTC+2.0)
Stats Elevation 1,682 ft / 513 m (AMSL)
Location 42.882847° -2.724460°
Runways 1
Magnetic Variation 0.494° W

METAR

LEVT 230330Z 07003KT 040V120 CAVOK 07/06 Q1018

Decode

TAF

TAF LEVT 222300Z 2300/2324 VRB05KT CAVOK TX22/2314Z TN08/2306Z TEMPO 2300/2306 3000 BR PROB40 TEMPO 2303/2307 0600 FG BKN001 PROB40 TEMPO 2303/2307 0350 FG VV001 PROB30 TEMPO 2309/2320 3000 SHRA SCT020TCU

Decode

Destination Runways

ID Width Length Bearing (true) Bearing (mag) Surface Threshold Offset Overrun Length
04 148 ft / 45 m 11,481 ft / 3,500 m 35.83° 36.32° Asphalt 0 ft / 0 m 164 ft / 50 m
22 148 ft / 45 m 11,481 ft / 3,500 m 215.85° 216.34° Asphalt 0 ft / 0 m 164 ft / 50 m

Approach Navaids

Runway Type Ident Frequency Range Bearing (true) Bearing (mag) Slope Elevation
04 Localiser VTO 108.90 MHz 18 nm / 33 km 35.85° 36.35° - 1,682 ft / 513 m (AMSL)
04 Glidescope VTO 108.90 MHz 10 nm / 19 km 35.84° 36.33° 3.00° 1,682 ft / 513 m (AMSL)
04 DME VTO 108.90 MHz 18 nm / 33 km - - - 1,681 ft / 512 m (AMSL)

Popular Alternatives